Terminal Aerodrome Forecast
Issued by NWS Cleveland, OH

Home | Current Version | Previous Version | Text Only | Print | Product List | Glossary On
Versions: 1 2 3 4 5 6 7 8 9 10 11 12 13 14 15 16 17 18 19 20 21 22
000
FTUS41 KCLE 220153 AAA
TAFYNG
TAF AMD
KYNG 220153Z 2202/2224 16006KT P6SM OVC050
      TEMPO 2202/2206 5SM -SHRA
     FM220700 16005KT 4SM BR OVC025
      TEMPO 2211/2213 2SM BR BKN010
     FM221500 11005KT P6SM BKN035=

USA.gov is the U.S. government's official web portal to all federal, state and local government web resources and services.